Time;durP1;ratioP1;P1;durP2;ratioP2;P2;SDS_P1;SDS_P2;PMS_P1;PMS_P2;Temp;Humidity;BMP_temperature;BMP_pressure;BME280_temperature;BME280_humidity;BME280_pressure;Samples;Min_cycle;Max_cycle;Signal;HPM_P1;HPM_P2
2022/05/06 00:01:30;;;;;;;28.45;15.80;;;;;;;;;;5067466;28;20117;-88
2022/05/06 00:03:56;;;;;;;31.08;16.83;;;;;;;;;;5067463;28;20040;-88
2022/05/06 00:06:22;;;;;;;34.10;16.83;;;;;;;;;;5068766;28;20025;-88
2022/05/06 00:08:48;;;;;;;30.00;16.00;;;;;;;;;;5066980;28;20032;-89
2022/05/06 00:11:14;;;;;;;31.75;15.82;;;;;;;;;;5067309;28;20024;-88
2022/05/06 00:13:40;;;;;;;34.17;17.25;;;;;;;;;;5067996;28;20495;-88
2022/05/06 00:16:07;;;;;;;28.23;17.00;;;;;;;;;;5068404;28;20427;-88
2022/05/06 00:18:34;;;;;;;27.05;16.75;;;;;;;;;;5068797;28;20532;-90
2022/05/06 00:21:00;;;;;;;27.45;16.50;;;;;;;;;;5067273;28;20071;-88
2022/05/06 00:23:26;;;;;;;31.50;17.70;;;;;;;;;;5067242;28;20059;-89
2022/05/06 00:25:53;;;;;;;32.08;17.05;;;;;;;;;;5067199;28;20438;-89
2022/05/06 00:28:19;;;;;;;35.80;18.20;;;;;;;;;;5068321;28;20029;-89
2022/05/06 00:30:45;;;;;;;28.75;17.60;;;;;;;;;;5068507;28;20066;-89
2022/05/06 00:33:11;;;;;;;29.85;17.35;;;;;;;;;;5068671;28;20051;-90
2022/05/06 00:35:37;;;;;;;29.73;16.63;;;;;;;;;;5068419;28;20029;-90
2022/05/06 00:38:03;;;;;;;33.55;18.35;;;;;;;;;;5068486;28;20040;-89
2022/05/06 00:40:30;;;;;;;31.08;16.98;;;;;;;;;;5068300;28;20106;-89
2022/05/06 00:42:56;;;;;;;31.15;17.02;;;;;;;;;;5068670;28;20032;-90
2022/05/06 00:45:23;;;;;;;33.20;18.50;;;;;;;;;;5066945;28;20341;-90
2022/05/06 00:47:50;;;;;;;29.90;17.80;;;;;;;;;;5067277;28;20033;-88
2022/05/06 00:50:19;;;;;;;33.30;18.27;;;;;;;;;;5066902;28;20062;-89
2022/05/06 00:52:45;;;;;;;31.85;18.00;;;;;;;;;;5069307;28;20036;-89
2022/05/06 00:55:11;;;;;;;30.35;18.08;;;;;;;;;;5068408;28;20036;-89
2022/05/06 00:57:37;;;;;;;31.65;16.73;;;;;;;;;;5067821;28;20075;-90
2022/05/06 01:00:20;;;;;;;29.83;18.00;;;;;;;;;;5068276;28;20028;-90
2022/05/06 01:02:46;;;;;;;30.30;18.30;;;;;;;;;;5067353;28;20033;-88
2022/05/06 01:05:13;;;;;;;32.03;17.00;;;;;;;;;;5068914;28;20056;-88
2022/05/06 01:07:40;;;;;;;30.10;17.25;;;;;;;;;;5068271;28;20024;-90
2022/05/06 01:10:06;;;;;;;32.45;17.98;;;;;;;;;;5067461;28;20120;-90
2022/05/06 01:12:33;;;;;;;33.33;18.95;;;;;;;;;;5068228;28;20046;-89
2022/05/06 01:14:59;;;;;;;37.22;20.10;;;;;;;;;;5068249;28;20037;-89
2022/05/06 01:17:25;;;;;;;35.38;20.00;;;;;;;;;;5070283;28;20456;-88
2022/05/06 01:19:51;;;;;;;36.30;20.42;;;;;;;;;;5070541;28;20032;-90
2022/05/06 01:22:17;;;;;;;37.10;20.08;;;;;;;;;;5070402;28;20051;-90
2022/05/06 01:24:44;;;;;;;39.55;21.30;;;;;;;;;;5072333;28;20455;-90
2022/05/06 01:27:15;;;;;;;40.05;20.70;;;;;;;;;;5071711;28;20037;-90
2022/05/06 01:29:43;;;;;;;41.90;22.23;;;;;;;;;;5070260;28;20051;-90
2022/05/06 01:32:10;;;;;;;42.70;20.98;;;;;;;;;;5070957;28;20028;-90
2022/05/06 01:34:39;;;;;;;41.20;21.33;;;;;;;;;;5070395;28;20128;-91
2022/05/06 01:37:05;;;;;;;41.50;20.77;;;;;;;;;;5071549;28;20021;-91
2022/05/06 01:39:34;;;;;;;39.08;21.10;;;;;;;;;;5070899;28;20050;-91
2022/05/06 01:42:04;;;;;;;44.97;21.65;;;;;;;;;;5071937;28;20025;-89
2022/05/06 01:44:31;;;;;;;42.55;21.85;;;;;;;;;;5071020;28;20021;-90
2022/05/06 01:46:58;;;;;;;40.15;20.02;;;;;;;;;;5071440;28;20028;-90
2022/05/06 01:49:26;;;;;;;36.85;20.58;;;;;;;;;;5071306;28;20025;-88
2022/05/06 01:51:53;;;;;;;42.25;22.38;;;;;;;;;;5070021;28;20102;-88
2022/05/06 01:54:19;;;;;;;47.38;23.02;;;;;;;;;;5072114;28;20047;-89
2022/05/06 01:56:49;;;;;;;45.60;23.23;;;;;;;;;;5071911;28;20021;-89
2022/05/06 01:59:15;;;;;;;44.50;22.73;;;;;;;;;;5071464;28;20025;-88
2022/05/06 02:01:41;;;;;;;50.38;23.35;;;;;;;;;;5071157;28;20027;-89
2022/05/06 02:06:51;;;;;;;341.90;27.98;;;;;;;;;;5072812;28;20047;-90
2022/05/06 02:09:17;;;;;;;58.55;24.95;;;;;;;;;;5070361;28;20469;-89
2022/05/06 02:11:43;;;;;;;142.32;26.15;;;;;;;;;;5069657;28;20079;-90
2022/05/06 02:14:09;;;;;;;344.83;28.23;;;;;;;;;;5070680;28;20355;-90
2022/05/06 02:16:35;;;;;;;219.32;29.10;;;;;;;;;;5069521;28;20025;-90
2022/05/06 02:19:03;;;;;;;266.02;28.50;;;;;;;;;;5069323;28;20025;-89
2022/05/06 02:21:29;;;;;;;91.77;25.50;;;;;;;;;;5070503;28;20016;-90
2022/05/06 02:23:55;;;;;;;45.65;23.63;;;;;;;;;;5070050;28;20029;-91
2022/05/06 02:26:21;;;;;;;48.67;21.88;;;;;;;;;;5070643;28;20021;-90
2022/05/06 02:28:47;;;;;;;157.15;23.92;;;;;;;;;;5071091;28;20032;-89
2022/05/06 02:33:58;;;;;;;295.75;23.80;;;;;;;;;;5070274;28;20165;-90
2022/05/06 02:36:24;;;;;;;89.55;21.88;;;;;;;;;;5069190;28;20053;-88
2022/05/06 02:38:50;;;;;;;168.45;21.80;;;;;;;;;;5070745;28;20039;-89
2022/05/06 02:41:16;;;;;;;105.70;20.33;;;;;;;;;;5070662;28;20080;-88
2022/05/06 02:43:42;;;;;;;391.92;26.60;;;;;;;;;;5070253;28;20051;-88
2022/05/06 02:46:09;;;;;;;438.38;26.17;;;;;;;;;;5069510;28;20029;-88
2022/05/06 02:48:35;;;;;;;445.10;28.33;;;;;;;;;;5068523;28;20020;-89
2022/05/06 02:51:01;;;;;;;126.70;20.92;;;;;;;;;;5068109;28;20020;-87
2022/05/06 02:53:27;;;;;;;306.95;22.92;;;;;;;;;;5071485;28;20028;-87
2022/05/06 02:55:53;;;;;;;538.83;26.77;;;;;;;;;;5068159;28;20515;-87
2022/05/06 02:58:19;;;;;;;75.03;19.80;;;;;;;;;;5071990;28;20016;-88
2022/05/06 03:00:45;;;;;;;101.57;20.70;;;;;;;;;;5068935;28;20028;-87
2022/05/06 03:03:11;;;;;;;58.58;20.20;;;;;;;;;;5069254;28;20708;-87
2022/05/06 03:05:37;;;;;;;266.60;24.27;;;;;;;;;;5067406;28;20043;-88
2022/05/06 03:08:04;;;;;;;83.75;21.20;;;;;;;;;;5067718;28;20017;-88
2022/05/06 03:10:30;;;;;;;296.73;24.20;;;;;;;;;;5069232;28;20028;-87
2022/05/06 03:12:58;;;;;;;42.55;18.70;;;;;;;;;;5069165;28;20020;-88
2022/05/06 03:15:24;;;;;;;40.67;20.73;;;;;;;;;;5069284;28;20403;-89
2022/05/06 03:17:50;;;;;;;56.60;21.33;;;;;;;;;;5069880;28;20086;-88
2022/05/06 03:20:16;;;;;;;53.65;21.08;;;;;;;;;;5069035;28;20106;-88
2022/05/06 03:22:46;;;;;;;40.63;20.58;;;;;;;;;;5069059;28;20298;-90
2022/05/06 03:25:12;;;;;;;70.15;22.63;;;;;;;;;;5067679;28;20052;-89
2022/05/06 03:30:23;;;;;;;93.55;26.73;;;;;;;;;;5069798;28;20032;-88
2022/05/06 03:32:50;;;;;;;324.25;32.33;;;;;;;;;;5069897;28;20078;-89
2022/05/06 03:35:16;;;;;;;287.52;32.15;;;;;;;;;;5067108;28;20044;-88
2022/05/06 03:37:43;;;;;;;177.48;26.83;;;;;;;;;;5067389;28;20060;-88
2022/05/06 03:40:10;;;;;;;87.15;27.23;;;;;;;;;;5067889;28;20052;-87
2022/05/06 03:42:36;;;;;;;531.70;32.33;;;;;;;;;;5068934;28;20028;-88
2022/05/06 03:45:03;;;;;;;147.48;26.52;;;;;;;;;;5067357;28;20442;-88
2022/05/06 03:47:29;;;;;;;73.95;26.05;;;;;;;;;;5068684;28;20027;-87
2022/05/06 03:52:40;;;;;;;84.55;26.15;;;;;;;;;;5085335;28;20443;-88
2022/05/06 03:55:06;;;;;;;59.10;24.95;;;;;;;;;;5088778;28;20036;-87
2022/05/06 03:57:32;;;;;;;183.82;29.77;;;;;;;;;;5076618;28;20024;-87
2022/05/06 03:59:58;;;;;;;209.07;24.70;;;;;;;;;;5067351;28;20029;-88
2022/05/06 04:02:24;;;;;;;189.88;28.33;;;;;;;;;;5068931;28;20036;-89
2022/05/06 04:04:50;;;;;;;287.98;29.02;;;;;;;;;;5069290;28;20016;-90
2022/05/06 04:07:16;;;;;;;77.57;25.17;;;;;;;;;;5067350;28;20530;-88
2022/05/06 04:09:42;;;;;;;92.60;25.17;;;;;;;;;;5068922;28;20500;-89
2022/05/06 04:12:09;;;;;;;64.00;23.65;;;;;;;;;;5068557;28;20063;-89
2022/05/06 04:14:36;;;;;;;79.00;26.80;;;;;;;;;;5068778;28;20123;-90
2022/05/06 04:17:05;;;;;;;158.05;25.63;;;;;;;;;;5068553;28;20452;-88
2022/05/06 04:19:31;;;;;;;187.57;25.27;;;;;;;;;;5068850;28;20017;-89
2022/05/06 04:24:42;;;;;;;71.68;26.25;;;;;;;;;;5068298;28;20047;-88
2022/05/06 04:27:08;;;;;;;129.68;26.60;;;;;;;;;;5069378;28;20020;-90
2022/05/06 04:29:34;;;;;;;73.93;27.83;;;;;;;;;;5068070;28;20035;-89
2022/05/06 04:32:00;;;;;;;89.93;28.00;;;;;;;;;;5068609;28;20032;-89
2022/05/06 04:34:26;;;;;;;101.72;27.60;;;;;;;;;;5067033;28;20417;-88
2022/05/06 04:36:52;;;;;;;135.10;27.65;;;;;;;;;;5068213;28;20024;-89
2022/05/06 04:39:19;;;;;;;202.93;28.90;;;;;;;;;;5067178;28;20025;-89
2022/05/06 04:41:47;;;;;;;108.47;29.33;;;;;;;;;;5068598;28;20031;-89
2022/05/06 04:44:13;;;;;;;131.15;28.17;;;;;;;;;;5068326;28;20032;-88
2022/05/06 04:46:39;;;;;;;187.23;26.92;;;;;;;;;;5067129;28;20535;-88
2022/05/06 04:49:05;;;;;;;116.40;26.65;;;;;;;;;;5068344;28;20071;-88
2022/05/06 04:51:31;;;;;;;257.05;25.08;;;;;;;;;;5068835;28;20124;-89
2022/05/06 04:53:57;;;;;;;82.03;24.52;;;;;;;;;;5072444;28;20032;-89
2022/05/06 04:56:23;;;;;;;145.63;23.95;;;;;;;;;;5071567;28;20032;-89
2022/05/06 04:58:49;;;;;;;123.50;24.75;;;;;;;;;;5072106;28;20024;-89
2022/05/06 05:01:15;;;;;;;155.68;25.10;;;;;;;;;;5072058;28;20373;-88
2022/05/06 05:03:41;;;;;;;130.30;26.67;;;;;;;;;;5071789;28;20516;-89
2022/05/06 05:06:08;;;;;;;195.45;26.63;;;;;;;;;;5070693;28;20025;-88
2022/05/06 05:08:34;;;;;;;139.63;27.50;;;;;;;;;;5071931;28;20100;-88
2022/05/06 05:11:03;;;;;;;127.53;28.40;;;;;;;;;;5071926;28;20468;-88
2022/05/06 05:13:34;;;;;;;85.93;25.33;;;;;;;;;;5071679;28;20052;-88
2022/05/06 05:16:00;;;;;;;210.73;25.40;;;;;;;;;;5070400;28;20400;-89
2022/05/06 05:18:26;;;;;;;246.32;24.52;;;;;;;;;;5072687;28;20036;-88
2022/05/06 05:20:52;;;;;;;96.82;24.30;;;;;;;;;;5071756;28;20025;-88
2022/05/06 05:23:18;;;;;;;334.75;30.38;;;;;;;;;;5071681;28;20416;-88
2022/05/06 05:25:44;;;;;;;144.82;24.50;;;;;;;;;;5071632;28;20017;-89
2022/05/06 05:28:10;;;;;;;81.95;23.98;;;;;;;;;;5071509;28;20035;-88
2022/05/06 05:30:36;;;;;;;69.82;21.95;;;;;;;;;;5070124;28;20024;-88
2022/05/06 05:33:02;;;;;;;262.25;25.42;;;;;;;;;;5071607;28;20024;-89
2022/05/06 05:35:29;;;;;;;171.32;24.15;;;;;;;;;;5070973;28;20124;-88
2022/05/06 05:37:56;;;;;;;264.23;24.75;;;;;;;;;;5072212;28;20062;-89
2022/05/06 05:40:22;;;;;;;74.28;23.25;;;;;;;;;;5070092;28;20400;-88
2022/05/06 05:42:48;;;;;;;80.00;23.25;;;;;;;;;;5069887;28;20074;-88
2022/05/06 05:50:43;;;;;;;164.88;23.65;;;;;;;;;;5071619;28;20404;-89
2022/05/06 05:53:09;;;;;;;319.42;25.27;;;;;;;;;;5071020;28;20028;-88
2022/05/06 05:55:35;;;;;;;226.63;27.13;;;;;;;;;;5071107;28;20032;-88
2022/05/06 05:58:02;;;;;;;129.18;25.00;;;;;;;;;;5069739;28;20065;-89
2022/05/06 06:00:28;;;;;;;84.97;23.60;;;;;;;;;;5071756;28;20021;-89
2022/05/06 06:02:56;;;;;;;112.00;24.77;;;;;;;;;;5070302;28;20028;-88
2022/05/06 06:05:22;;;;;;;147.23;24.55;;;;;;;;;;5069745;28;20055;-89
2022/05/06 06:07:48;;;;;;;60.63;22.30;;;;;;;;;;5070631;28;20119;-88
2022/05/06 06:10:14;;;;;;;121.93;23.38;;;;;;;;;;5071018;28;20513;-89
2022/05/06 06:12:40;;;;;;;100.55;23.30;;;;;;;;;;5070853;28;20054;-88
2022/05/06 06:15:06;;;;;;;93.22;21.92;;;;;;;;;;5070597;28;20404;-88
2022/05/06 06:17:33;;;;;;;216.02;23.95;;;;;;;;;;5070563;28;20031;-89
2022/05/06 06:19:59;;;;;;;75.55;21.40;;;;;;;;;;5070002;28;20028;-88
2022/05/06 06:22:25;;;;;;;93.35;21.05;;;;;;;;;;5070505;28;20021;-88
2022/05/06 06:24:51;;;;;;;77.60;21.13;;;;;;;;;;5070448;28;20024;-88
2022/05/06 06:27:17;;;;;;;43.90;19.70;;;;;;;;;;5070572;28;20536;-88
2022/05/06 06:29:44;;;;;;;88.72;19.38;;;;;;;;;;5070465;28;20104;-88
2022/05/06 06:32:10;;;;;;;42.72;19.40;;;;;;;;;;5070282;28;20384;-89
2022/05/06 06:34:36;;;;;;;145.30;23.15;;;;;;;;;;5070204;28;20044;-88
2022/05/06 06:37:05;;;;;;;93.13;20.35;;;;;;;;;;5071127;28;20016;-89
2022/05/06 06:39:31;;;;;;;38.13;18.35;;;;;;;;;;5071022;28;20039;-89
2022/05/06 06:41:57;;;;;;;44.13;19.85;;;;;;;;;;5070219;28;20021;-89
2022/05/06 06:44:23;;;;;;;79.35;19.75;;;;;;;;;;5070102;28;20039;-88
2022/05/06 06:46:49;;;;;;;43.95;19.45;;;;;;;;;;5070000;28;20099;-87
2022/05/06 06:49:15;;;;;;;64.63;20.27;;;;;;;;;;5069875;28;20054;-88
2022/05/06 06:51:41;;;;;;;40.25;19.27;;;;;;;;;;5069701;28;20070;-88
2022/05/06 06:54:07;;;;;;;34.45;17.42;;;;;;;;;;5069562;28;20447;-89
2022/05/06 06:56:33;;;;;;;36.22;17.83;;;;;;;;;;5070573;28;20032;-88
2022/05/06 06:58:59;;;;;;;71.00;18.50;;;;;;;;;;5070457;28;20025;-87
2022/05/06 07:01:25;;;;;;;33.35;17.40;;;;;;;;;;5069681;28;20029;-88
2022/05/06 07:03:51;;;;;;;37.90;17.63;;;;;;;;;;5069028;28;20393;-89
2022/05/06 07:11:57;;;;;;;32.15;16.50;;;;;;;;;;5069266;28;20067;-87
2022/05/06 07:14:25;;;;;;;47.10;15.40;;;;;;;;;;5068253;28;20043;-87
2022/05/06 07:16:51;;;;;;;27.13;15.68;;;;;;;;;;5069381;28;20052;-87
2022/05/06 07:19:17;;;;;;;31.20;16.67;;;;;;;;;;5067964;28;20032;-87
2022/05/06 07:21:44;;;;;;;24.85;15.02;;;;;;;;;;5067897;28;20024;-88
2022/05/06 07:24:10;;;;;;;34.92;16.45;;;;;;;;;;5067666;28;20435;-87
2022/05/06 07:26:36;;;;;;;34.13;15.88;;;;;;;;;;5067845;28;20467;-89
2022/05/06 07:29:02;;;;;;;35.95;15.85;;;;;;;;;;5069036;28;20028;-88
2022/05/06 07:31:28;;;;;;;35.58;14.60;;;;;;;;;;5070050;28;20475;-93
2022/05/06 07:33:55;;;;;;;34.40;15.02;;;;;;;;;;5069009;28;20032;-92
2022/05/06 07:36:23;;;;;;;29.15;14.80;;;;;;;;;;5070151;28;20029;-90
2022/05/06 07:38:49;;;;;;;25.85;13.70;;;;;;;;;;5068839;28;20093;-90
2022/05/06 07:41:15;;;;;;;27.92;14.93;;;;;;;;;;5067301;28;20020;-90
2022/05/06 07:43:41;;;;;;;29.27;14.50;;;;;;;;;;5067210;28;20031;-90
2022/05/06 07:46:10;;;;;;;23.45;13.60;;;;;;;;;;5067073;28;20017;-89
2022/05/06 07:48:37;;;;;;;25.85;14.15;;;;;;;;;;5067021;28;20047;-87
2022/05/06 07:51:03;;;;;;;30.33;15.23;;;;;;;;;;5067248;28;20020;-89
2022/05/06 07:53:29;;;;;;;29.63;15.48;;;;;;;;;;5067950;28;20029;-88
2022/05/06 07:55:55;;;;;;;32.30;15.30;;;;;;;;;;5058720;28;20468;-88
2022/05/06 07:58:21;;;;;;;27.05;14.60;;;;;;;;;;5061932;28;20028;-90
2022/05/06 08:00:47;;;;;;;27.75;15.18;;;;;;;;;;5062780;28;20407;-89
2022/05/06 08:05:59;;;;;;;26.05;14.30;;;;;;;;;;5067384;28;20031;-90
2022/05/06 08:08:30;;;;;;;25.83;14.40;;;;;;;;;;5067938;28;20257;-90
2022/05/06 08:10:56;;;;;;;27.80;15.23;;;;;;;;;;5064820;28;20039;-92
2022/05/06 08:13:23;;;;;;;24.98;14.15;;;;;;;;;;5064927;28;20037;-89
2022/05/06 08:15:50;;;;;;;30.13;14.48;;;;;;;;;;5068640;28;20136;-89
2022/05/06 08:18:16;;;;;;;25.67;14.75;;;;;;;;;;5067867;28;20115;-89
2022/05/06 08:20:42;;;;;;;26.92;15.05;;;;;;;;;;5068947;28;20047;-90
2022/05/06 08:23:09;;;;;;;29.30;15.10;;;;;;;;;;5068970;28;20017;-90
2022/05/06 08:25:35;;;;;;;29.45;14.88;;;;;;;;;;5068838;28;20127;-91
2022/05/06 08:28:01;;;;;;;27.30;15.45;;;;;;;;;;5072749;28;20492;-92
2022/05/06 08:30:27;;;;;;;29.02;14.50;;;;;;;;;;5074039;28;20033;-93
2022/05/06 08:32:53;;;;;;;29.13;15.10;;;;;;;;;;5073673;28;20031;-93
2022/05/06 08:35:19;;;;;;;23.48;13.95;;;;;;;;;;5073486;28;20041;-92
2022/05/06 08:37:46;;;;;;;25.23;13.25;;;;;;;;;;5072491;28;20073;-89
2022/05/06 08:40:23;;;;;;;27.20;14.88;;;;;;;;;;5071236;28;20024;-88
2022/05/06 08:42:50;;;;;;;32.22;15.23;;;;;;;;;;5070238;28;20021;-89
2022/05/06 08:50:53;;;;;;;26.30;14.18;;;;;;;;;;5068600;28;20027;-88
2022/05/06 08:53:23;;;;;;;24.70;13.52;;;;;;;;;;5070889;28;20033;-89
2022/05/06 08:55:52;;;;;;;25.92;13.63;;;;;;;;;;5070920;28;20028;-90
2022/05/06 08:58:20;;;;;;;26.75;14.52;;;;;;;;;;5070104;28;20058;-90
2022/05/06 09:00:46;;;;;;;26.67;13.77;;;;;;;;;;5070953;28;20107;-90
2022/05/06 09:03:14;;;;;;;26.17;13.18;;;;;;;;;;5070474;28;20091;-89
2022/05/06 09:05:50;;;;;;;25.33;12.95;;;;;;;;;;5070612;28;20044;-89
2022/05/06 09:08:16;;;;;;;21.38;13.15;;;;;;;;;;5070654;28;20103;-89
2022/05/06 09:10:42;;;;;;;24.63;12.73;;;;;;;;;;5069612;28;20056;-90
2022/05/06 09:13:08;;;;;;;21.63;12.82;;;;;;;;;;5067601;28;20017;-89
2022/05/06 09:18:22;;;;;;;24.25;11.60;;;;;;;;;;5072040;28;20051;-90
2022/05/06 09:20:49;;;;;;;23.80;11.98;;;;;;;;;;5070483;28;20392;-90
2022/05/06 09:23:25;;;;;;;19.23;12.10;;;;;;;;;;5070307;28;20029;-89
2022/05/06 09:25:54;;;;;;;19.00;11.05;;;;;;;;;;5071655;28;20388;-89
2022/05/06 09:28:30;;;;;;;18.80;10.40;;;;;;;;;;5072126;28;20021;-88
2022/05/06 09:31:04;;;;;;;18.08;10.73;;;;;;;;;;5071478;28;20457;-90
2022/05/06 09:33:31;;;;;;;17.80;9.88;;;;;;;;;;5073260;28;20028;-92
2022/05/06 09:35:58;;;;;;;21.00;9.88;;;;;;;;;;5071452;28;20352;-87
2022/05/06 09:38:25;;;;;;;17.73;9.95;;;;;;;;;;5070729;28;20017;-89
2022/05/06 09:40:51;;;;;;;20.92;10.38;;;;;;;;;;5071746;28;20025;-87
2022/05/06 09:43:18;;;;;;;18.20;10.43;;;;;;;;;;5070823;28;20056;-88
2022/05/06 09:45:45;;;;;;;18.25;10.40;;;;;;;;;;5070015;28;20028;-86
2022/05/06 09:48:12;;;;;;;21.67;10.38;;;;;;;;;;5071197;28;20021;-90
2022/05/06 09:50:40;;;;;;;20.90;10.70;;;;;;;;;;5071334;28;20070;-88
